Renee' T. Whatley — WDD5243 — position and weather

sailwx.info

Track history (hours):
 
Tides and Currents Weather Stations Pressure Air Temp Water Temp Dewpoint Dewpoint Depression Visibility Wind Speed Wind Dir Waves Ship Positions

Renee' T. Whatley

Owner: Terral RiverService, Inc., Lake Providence, LA. More information available from US FCC via Universal Licensing System and Coast Guard Vessel Documentation Center.

Last reported at 2018-May-22 20:45 UTC. Time now 2018-May-22 21:18 UTC.
Position N 29°26' W 094°50'.

Length 11 m.

Type: Tug. MMSI: 367155550.

Date/timePositionNaut miles runAvg speedWind from/ knotsBaromVisibWave heightAir tempDewpointWater temp
2018-May-22 20:45N 29°26' W 094°50'3 9.0
2018-May-22 20:28N 29°24' W 094°49'3 5.9
2018-May-22 19:58N 29°21' W 094°49'1 3.1
2018-May-22 19:30N 29°20' W 094°50'3 6.7
2018-May-22 19:00N 29°18' W 094°53'2 3.7
2018-May-22 18:30N 29°17' W 094°55'2 4.5
2018-May-22 18:00N 29°17' W 094°58'1 1.8
2018-May-22 17:30N 29°17' W 094°59'1 1.8
2018-May-22 17:00N 29°16' W 094°59'3 5.7
2018-May-22 16:30N 29°14' W 095°02'2 4.7
2018-May-22 16:00N 29°12' W 095°03'3 5.8
2018-May-22 15:30N 29°11' W 095°06'2 4.7
2018-May-22 15:00N 29°09' W 095°08'2 3.8
2018-May-22 14:30N 29°08' W 095°10'1 1.3
2018-May-22 14:00N 29°08' W 095°11'3 5.6
2018-May-22 13:30N 29°05' W 095°12'3 5.7
2018-May-22 13:00N 29°03' W 095°14'3 5.9
2018-May-22 12:30N 29°00' W 095°15'3 5.7
2018-May-22 12:00N 28°58' W 095°17'3 5.6
2018-May-22 11:28N 28°56' W 095°20'2 3.9
2018-May-22 10:55N 28°55' W 095°22'0 0.1
2018-May-22 10:27N 28°55' W 095°22'0 0.0
2018-May-22 09:57N 28°54' W 095°22'0 0.0
2018-May-22 09:27N 28°54' W 095°22'2 4.1
2018-May-22 08:57N 28°54' W 095°24'2 2.9
2018-May-22 08:14N 28°55' W 095°22'1 2.3
2018-May-22 08:00N 28°54' W 095°22'2 2.9
2018-May-22 07:26N 28°54' W 095°24'2 2.3
2018-May-22 06:31N 28°54' W 095°22'0 0.0
2018-May-22 06:30N 28°54' W 095°22'0 0.0
2018-May-22 05:16N 28°54' W 095°22'1 2.1
2018-May-22 04:56N 28°54' W 095°22'2 2.9
2018-May-22 04:22N 28°54' W 095°24'0 0.0
2018-May-22 03:58N 28°54' W 095°24'  
2018-May-18 07:00N 28°22' W 096°43'4 6.2
2018-May-18 06:20N 28°26' W 096°45'2 4.4
2018-May-18 05:49N 28°27' W 096°47'0 0.1
2018-May-18 05:26N 28°27' W 096°47'1 3.0
2018-May-18 05:01N 28°28' W 096°47'3 1.6
2018-May-18 02:49N 28°32' W 096°48'3 5.5
2018-May-18 02:22N 28°33' W 096°51'3 6.3
2018-May-18 01:55N 28°35' W 096°54'3 0.2
2018-May-17 02:44N 28°37' W 096°56'1 5.1
2018-May-17 02:30N 28°38' W 096°57'  
Track history (hours):
 
Tides and Currents Weather Stations Pressure Air Temp Water Temp Dewpoint Dewpoint Depression Visibility Wind Speed Wind Dir Waves Ship Positions

Renee' T. Whatley

Owner: Terral RiverService, Inc., Lake Providence, LA. More information available from US FCC via Universal Licensing System and Coast Guard Vessel Documentation Center.

Last reported at 2018-May-22 20:45 UTC. Time now 2018-May-22 21:18 UTC.
Position N 29°26' W 094°50'.

Length 11 m.

Type: Tug. MMSI: 367155550.

Date/timePositionNaut miles runAvg speedWind from/ knotsBaromVisibWave heightAir tempDewpointWater temp
2018-May-22 20:45N 29°26' W 094°50'3 9.0
2018-May-22 20:28N 29°24' W 094°49'3 5.9
2018-May-22 19:58N 29°21' W 094°49'1 3.1
2018-May-22 19:30N 29°20' W 094°50'3 6.7
2018-May-22 19:00N 29°18' W 094°53'2 3.7
2018-May-22 18:30N 29°17' W 094°55'2 4.5
2018-May-22 18:00N 29°17' W 094°58'1 1.8
2018-May-22 17:30N 29°17' W 094°59'1 1.8
2018-May-22 17:00N 29°16' W 094°59'3 5.7
2018-May-22 16:30N 29°14' W 095°02'2 4.7
2018-May-22 16:00N 29°12' W 095°03'3 5.8
2018-May-22 15:30N 29°11' W 095°06'2 4.7
2018-May-22 15:00N 29°09' W 095°08'2 3.8
2018-May-22 14:30N 29°08' W 095°10'1 1.3
2018-May-22 14:00N 29°08' W 095°11'3 5.6
2018-May-22 13:30N 29°05' W 095°12'3 5.7
2018-May-22 13:00N 29°03' W 095°14'3 5.9
2018-May-22 12:30N 29°00' W 095°15'3 5.7
2018-May-22 12:00N 28°58' W 095°17'3 5.6
2018-May-22 11:28N 28°56' W 095°20'2 3.9
2018-May-22 10:55N 28°55' W 095°22'0 0.1
2018-May-22 10:27N 28°55' W 095°22'0 0.0
2018-May-22 09:57N 28°54' W 095°22'0 0.0
2018-May-22 09:27N 28°54' W 095°22'2 4.1
2018-May-22 08:57N 28°54' W 095°24'2 2.9
2018-May-22 08:14N 28°55' W 095°22'1 2.3
2018-May-22 08:00N 28°54' W 095°22'2 2.9
2018-May-22 07:26N 28°54' W 095°24'2 2.3
2018-May-22 06:31N 28°54' W 095°22'0 0.0
2018-May-22 06:30N 28°54' W 095°22'0 0.0
2018-May-22 05:16N 28°54' W 095°22'1 2.1
2018-May-22 04:56N 28°54' W 095°22'2 2.9
2018-May-22 04:22N 28°54' W 095°24'0 0.0
2018-May-22 03:58N 28°54' W 095°24'  
2018-May-18 07:00N 28°22' W 096°43'4 6.2
2018-May-18 06:20N 28°26' W 096°45'2 4.4
2018-May-18 05:49N 28°27' W 096°47'0 0.1
2018-May-18 05:26N 28°27' W 096°47'1 3.0
2018-May-18 05:01N 28°28' W 096°47'3 1.6
2018-May-18 02:49N 28°32' W 096°48'3 5.5
2018-May-18 02:22N 28°33' W 096°51'3 6.3
2018-May-18 01:55N 28°35' W 096°54'3 0.2
2018-May-17 02:44N 28°37' W 096°56'1 5.1
2018-May-17 02:30N 28°38' W 096°57'  

Dump ship's entire track history